createdAt,value
2019-03-08T00:00:27.965Z,1.50
2019-03-08T00:02:55.045Z,1.77
2019-03-08T00:05:22.209Z,2.37
2019-03-08T00:07:49.057Z,1.33
2019-03-08T00:10:16.195Z,1.10
2019-03-08T00:12:43.308Z,2.30
2019-03-08T00:15:10.934Z,2.60
2019-03-08T00:17:37.790Z,5.33
2019-03-08T00:20:05.433Z,1.10
2019-03-08T00:22:32.410Z,1.30
2019-03-08T00:24:59.290Z,1.40
2019-03-08T00:27:26.070Z,1.57
2019-03-08T00:29:53.206Z,1.30
2019-03-08T00:32:20.493Z,1.50
2019-03-08T00:34:47.405Z,1.90
2019-03-08T00:37:14.675Z,2.00
2019-03-08T00:39:41.560Z,1.83
2019-03-08T00:42:08.596Z,1.47
2019-03-08T00:44:35.431Z,1.47
2019-03-08T00:47:02.471Z,1.30
2019-03-08T00:49:29.568Z,2.50
2019-03-08T00:51:56.418Z,2.57
2019-03-08T00:54:23.349Z,1.90
2019-03-08T00:56:50.177Z,4.23
2019-03-08T00:59:17.097Z,1.50
2019-03-08T01:01:44.039Z,1.30
2019-03-08T01:04:11.025Z,1.30
2019-03-08T01:06:37.823Z,1.60
2019-03-08T01:09:05.495Z,1.47
2019-03-08T01:11:32.638Z,1.40
2019-03-08T01:13:59.785Z,1.40
2019-03-08T01:16:26.890Z,1.40
2019-03-08T01:18:53.722Z,1.30
2019-03-08T01:21:20.643Z,1.30
2019-03-08T01:23:47.708Z,0.80
2019-03-08T01:26:14.485Z,1.00
2019-03-08T01:28:41.601Z,0.97
2019-03-08T01:31:08.710Z,1.00
2019-03-08T01:33:35.547Z,0.80
2019-03-08T01:36:02.801Z,1.07
2019-03-08T01:38:29.622Z,0.80
2019-03-08T01:40:56.612Z,0.83
2019-03-08T01:43:23.507Z,0.93
2019-03-08T01:45:50.746Z,0.80
2019-03-08T01:48:17.833Z,1.13
2019-03-08T01:50:44.825Z,0.83
2019-03-08T01:53:11.717Z,1.00
2019-03-08T01:55:38.744Z,0.80
2019-03-08T01:58:05.778Z,0.90
2019-03-08T02:00:33.142Z,0.90
2019-03-08T02:03:00.215Z,0.83
2019-03-08T02:05:27.236Z,0.80
2019-03-08T02:07:54.306Z,1.00
2019-03-08T02:10:21.165Z,1.10
2019-03-08T02:12:48.020Z,1.00
2019-03-08T02:15:15.136Z,0.90
2019-03-08T02:17:42.409Z,0.93
2019-03-08T02:20:12.629Z,1.10
2019-03-08T02:22:39.536Z,1.10
2019-03-08T02:25:06.728Z,0.87
2019-03-08T02:27:33.625Z,0.90
2019-03-08T02:30:00.571Z,0.90
2019-03-08T02:32:27.530Z,1.00
2019-03-08T02:34:54.435Z,0.70
2019-03-08T02:37:21.321Z,0.60
2019-03-08T02:39:48.346Z,0.70
2019-03-08T02:42:15.192Z,0.60
2019-03-08T02:44:42.020Z,0.90
2019-03-08T02:47:08.813Z,0.60
2019-03-08T02:49:35.781Z,0.83
2019-03-08T02:52:03.827Z,1.23
2019-03-08T02:54:30.622Z,0.90
2019-03-08T02:56:57.490Z,0.80
2019-03-08T02:59:24.505Z,0.80
2019-03-08T03:01:51.502Z,0.90
2019-03-08T03:04:18.346Z,0.90
2019-03-08T03:06:45.351Z,1.07
2019-03-08T03:09:12.551Z,0.80
2019-03-08T03:11:39.733Z,1.00
2019-03-08T03:14:06.641Z,0.97
2019-03-08T03:16:33.434Z,0.80
2019-03-08T03:19:00.313Z,1.00
2019-03-08T03:21:27.082Z,0.90
2019-03-08T03:23:53.961Z,1.00
2019-03-08T03:26:20.935Z,0.90
2019-03-08T03:28:48.038Z,0.80
2019-03-08T03:31:14.962Z,0.70
2019-03-08T03:33:41.785Z,0.80
2019-03-08T03:36:08.927Z,1.00
2019-03-08T03:38:35.705Z,0.87
2019-03-08T03:41:02.835Z,0.80
2019-03-08T03:43:30.079Z,0.90
2019-03-08T03:45:56.976Z,1.10
2019-03-08T03:48:23.937Z,1.00
2019-03-08T03:50:50.819Z,0.97
2019-03-08T03:53:17.625Z,1.00
2019-03-08T03:55:44.530Z,0.97
2019-03-08T03:58:11.374Z,0.90
2019-03-08T04:00:38.633Z,1.13
2019-03-08T04:03:05.602Z,1.00
2019-03-08T04:05:32.704Z,1.30
2019-03-08T04:10:47.357Z,0.80
2019-03-08T04:13:14.286Z,0.90
2019-03-08T04:15:41.283Z,0.97
2019-03-08T04:18:08.288Z,1.00
2019-03-08T04:20:54.903Z,1.00
2019-03-08T04:23:41.462Z,1.00
2019-03-08T04:26:28.062Z,1.80
2019-03-08T04:28:55.410Z,1.00
2019-03-08T04:31:41.897Z,1.10
2019-03-08T04:34:28.537Z,0.90
2019-03-08T04:37:15.172Z,1.00
2019-03-08T04:40:01.736Z,1.00
2019-03-08T04:42:48.454Z,0.83
2019-03-08T04:45:34.860Z,0.70
2019-03-08T04:48:21.363Z,0.83
2019-03-08T04:51:08.027Z,0.90
2019-03-08T04:53:54.679Z,0.80
2019-03-08T04:56:41.182Z,0.80
2019-03-08T04:59:20.673Z,0.73
2019-03-08T05:02:00.873Z,0.67
2019-03-08T05:04:41.044Z,0.60
2019-03-08T05:07:20.282Z,0.70
2019-03-08T05:09:47.673Z,0.60
2019-03-08T05:12:34.348Z,0.70
2019-03-08T05:15:20.883Z,0.87
2019-03-08T05:18:07.530Z,0.70
2019-03-08T05:20:54.087Z,0.80
2019-03-08T05:23:40.536Z,0.83
2019-03-08T05:26:26.967Z,0.80
2019-03-08T05:29:13.384Z,0.77
2019-03-08T05:31:40.148Z,0.87
2019-03-08T05:34:26.709Z,0.73
2019-03-08T05:37:13.768Z,1.00
2019-03-08T05:40:01.532Z,0.77
2019-03-08T05:42:48.145Z,0.70
2019-03-08T05:45:34.651Z,0.73
2019-03-08T05:48:21.294Z,1.07
2019-03-08T05:51:08.422Z,0.90
2019-03-08T05:53:54.822Z,0.70
2019-03-08T05:56:41.279Z,0.77
2019-03-08T05:59:20.956Z,0.77
2019-03-08T06:02:01.228Z,0.80
2019-03-08T06:04:41.010Z,0.93
2019-03-08T06:07:20.218Z,0.90
2019-03-08T06:10:00.338Z,0.80
2019-03-08T06:12:40.356Z,0.80
2019-03-08T06:15:20.451Z,1.00
2019-03-08T06:18:00.468Z,1.10
2019-03-08T06:20:27.849Z,1.00
2019-03-08T06:23:14.249Z,0.97
2019-03-08T06:26:01.030Z,0.87
2019-03-08T06:28:47.594Z,0.70
2019-03-08T06:31:14.652Z,0.63
2019-03-08T06:34:01.193Z,1.00
2019-03-08T06:36:47.616Z,1.00
2019-03-08T06:39:34.422Z,1.20
2019-03-08T06:42:21.485Z,1.10
2019-03-08T06:44:48.340Z,0.90
2019-03-08T06:47:34.953Z,0.90
2019-03-08T06:50:21.574Z,0.70
2019-03-08T06:53:08.237Z,0.70
2019-03-08T06:55:35.200Z,1.10
2019-03-08T06:58:41.930Z,0.77
2019-03-08T07:04:30.941Z,0.97
2019-03-08T07:07:17.822Z,0.80
2019-03-08T07:10:04.433Z,0.70
2019-03-08T07:12:50.882Z,0.80
2019-03-08T07:15:37.486Z,0.80
2019-03-08T07:18:24.139Z,0.90
2019-03-08T07:21:30.315Z,1.20
2019-03-08T07:24:23.499Z,1.00
2019-03-08T07:27:29.539Z,0.90
2019-03-08T07:30:35.710Z,0.90
2019-03-08T07:33:41.772Z,0.80
2019-03-08T07:36:47.880Z,1.00
2019-03-08T07:39:54.594Z,0.90
2019-03-08T07:43:00.782Z,1.00
2019-03-08T07:46:06.830Z,0.87
2019-03-08T07:49:13.264Z,2.10
2019-03-08T07:54:54.499Z,1.10
2019-03-08T07:58:00.555Z,0.77
2019-03-08T08:01:05.665Z,0.85
2019-03-08T08:03:58.298Z,0.60
2019-03-08T08:06:57.351Z,1.40
2019-03-08T08:12:29.144Z,1.03
2019-03-08T08:15:35.479Z,0.88
2019-03-08T08:18:41.704Z,0.98
2019-03-08T08:21:34.612Z,1.10
2019-03-08T08:27:29.585Z,1.07
2019-03-08T08:30:35.825Z,1.02
2019-03-08T08:33:41.977Z,1.23
2019-03-08T08:36:48.152Z,1.30
2019-03-08T08:39:54.187Z,0.80
2019-03-08T08:43:00.260Z,1.00
2019-03-08T08:46:06.634Z,0.90
2019-03-08T08:49:12.850Z,1.12
2019-03-08T08:51:59.372Z,1.00
2019-03-08T08:55:05.434Z,0.85
2019-03-08T08:58:11.702Z,0.95
2019-03-08T09:01:11.226Z,0.97
2019-03-08T09:03:57.754Z,1.10
2019-03-08T09:07:03.820Z,0.70
2019-03-08T09:10:10.186Z,1.10
2019-03-08T09:12:57.096Z,1.00
2019-03-08T09:16:03.461Z,1.00
2019-03-08T09:19:09.690Z,1.10
2019-03-08T09:21:43.965Z,1.00
2019-03-08T09:24:50.135Z,1.40
2019-03-08T09:27:36.562Z,2.10
2019-03-08T09:30:43.083Z,1.10
2019-03-08T09:33:34.440Z,0.90
2019-03-08T09:36:20.977Z,1.02
2019-03-08T09:39:27.359Z,1.10
2019-03-08T09:42:33.914Z,0.82
2019-03-08T09:45:40.220Z,1.30
2019-03-08T09:48:48.945Z,0.95
2019-03-08T09:51:54.511Z,1.07
2019-03-08T09:55:00.666Z,1.00
2019-03-08T09:58:06.929Z,0.75
2019-03-08T10:01:06.708Z,1.00
2019-03-08T10:03:55.305Z,0.78
2019-03-08T10:07:01.878Z,1.07
2019-03-08T10:09:57.606Z,0.95
2019-03-08T10:13:03.795Z,1.00
2019-03-08T10:16:10.017Z,1.00
2019-03-08T10:19:07.290Z,1.50
2019-03-08T10:22:02.674Z,1.40
2019-03-08T10:25:08.725Z,1.27
2019-03-08T10:28:15.050Z,1.20
2019-03-08T10:31:09.140Z,1.40
2019-03-08T10:34:06.044Z,1.20
2019-03-08T10:37:07.998Z,1.17
2019-03-08T10:40:07.266Z,1.20
2019-03-08T10:42:53.918Z,1.37
2019-03-08T10:45:40.553Z,1.05
2019-03-08T10:48:36.565Z,1.00
2019-03-08T10:51:42.814Z,1.42
2019-03-08T10:54:49.351Z,1.20
2019-03-08T10:57:29.226Z,1.40
2019-03-08T11:00:17.313Z,1.45
2019-03-08T11:03:18.895Z,1.30
2019-03-08T11:06:25.060Z,0.90
2019-03-08T11:09:50.833Z,1.70
2019-03-08T11:12:56.900Z,0.78
2019-03-08T11:16:02.973Z,0.90
2019-03-08T11:19:09.218Z,1.20
2019-03-08T11:22:04.242Z,1.50
2019-03-08T11:25:10.670Z,1.40
2019-03-08T11:28:21.099Z,1.47
2019-03-08T11:31:25.368Z,1.30
2019-03-08T11:34:31.537Z,1.15
2019-03-08T11:37:37.926Z,1.02
2019-03-08T11:40:44.126Z,0.98
2019-03-08T11:43:50.231Z,0.90
2019-03-08T11:46:46.695Z,1.10
2019-03-08T11:49:52.952Z,1.20
2019-03-08T11:52:59.010Z,1.00
2019-03-08T11:56:05.154Z,1.30
2019-03-08T11:59:00.522Z,1.22
2019-03-08T12:02:06.735Z,1.10
2019-03-08T12:05:12.971Z,1.62
2019-03-08T12:07:59.687Z,0.80
2019-03-08T12:11:06.072Z,1.00
2019-03-08T12:14:12.130Z,1.20
2019-03-08T12:17:18.268Z,1.22
2019-03-08T12:20:25.265Z,1.05
2019-03-08T12:23:31.437Z,0.80
2019-03-08T12:26:37.876Z,1.20
2019-03-08T12:29:43.939Z,0.98
2019-03-08T12:32:49.989Z,0.78
2019-03-08T12:35:56.187Z,1.10
2019-03-08T12:39:02.252Z,1.02
2019-03-08T12:42:08.669Z,0.80
2019-03-08T12:45:14.839Z,0.80
2019-03-08T12:48:24.134Z,0.75
2019-03-08T12:51:29.265Z,0.70
2019-03-08T12:54:35.487Z,0.65
2019-03-08T12:57:41.648Z,1.00
2019-03-08T13:00:37.695Z,0.90
2019-03-08T13:03:36.621Z,1.10
2019-03-08T13:06:25.738Z,0.90
2019-03-08T13:09:01.997Z,1.00
2019-03-08T13:11:33.370Z,0.90
2019-03-08T13:14:17.068Z,0.90
2019-03-08T13:17:03.562Z,1.10
2019-03-08T13:19:50.023Z,1.15
2019-03-08T13:22:36.547Z,1.27
2019-03-08T13:25:23.243Z,1.10
2019-03-08T13:28:09.634Z,1.30
2019-03-08T13:30:56.144Z,0.80
2019-03-08T13:33:42.558Z,0.80
2019-03-08T13:36:28.968Z,0.70
2019-03-08T13:39:15.358Z,0.80
2019-03-08T13:42:01.883Z,1.00
2019-03-08T13:44:48.366Z,1.07
2019-03-08T13:47:35.085Z,1.15
2019-03-08T13:50:21.494Z,1.40
2019-03-08T13:53:08.017Z,0.95
2019-03-08T13:55:34.877Z,1.50
2019-03-08T13:58:21.326Z,1.20
2019-03-08T14:04:00.246Z,1.42
2019-03-08T14:06:40.334Z,1.00
2019-03-08T14:09:20.429Z,1.25
2019-03-08T14:12:00.522Z,0.88
2019-03-08T14:14:40.799Z,1.30
2019-03-08T14:17:20.674Z,1.45
2019-03-08T14:20:00.419Z,1.70
2019-03-08T14:22:40.313Z,1.67
2019-03-08T14:25:20.182Z,2.20
2019-03-08T14:27:47.037Z,1.80
2019-03-08T14:33:45.119Z,1.30
2019-03-08T14:36:11.962Z,1.40
2019-03-08T14:38:58.646Z,1.50
2019-03-08T14:44:50.866Z,0.90
2019-03-08T14:47:56.930Z,1.00
2019-03-08T14:50:43.315Z,1.23
2019-03-08T14:53:32.926Z,0.90
2019-03-08T14:56:18.017Z,0.80
2019-03-08T14:58:57.500Z,1.07
2019-03-08T15:01:39.950Z,0.80
2019-03-08T15:04:19.263Z,1.10
2019-03-08T15:07:01.261Z,1.10
2019-03-08T15:09:41.287Z,0.70
2019-03-08T15:12:21.246Z,0.90
2019-03-08T15:14:48.306Z,1.00
2019-03-08T15:17:34.808Z,1.12
2019-03-08T15:20:21.350Z,1.00
2019-03-08T15:23:13.312Z,1.37
2019-03-08T15:25:58.356Z,1.10
2019-03-08T15:28:46.685Z,0.90
2019-03-08T15:31:33.215Z,1.10
2019-03-08T15:34:21.516Z,1.30
2019-03-08T15:37:08.143Z,1.00
2019-03-08T15:39:54.550Z,1.00
2019-03-08T15:42:41.176Z,1.40
2019-03-08T15:45:27.692Z,1.25
2019-03-08T15:48:15.936Z,3.33
2019-03-08T15:51:04.145Z,1.30
2019-03-08T15:53:50.580Z,1.30
2019-03-08T15:56:37.087Z,1.55
2019-03-08T15:59:18.566Z,1.50
2019-03-08T16:01:57.803Z,1.35
2019-03-08T16:04:37.731Z,4.40
2019-03-08T16:07:19.006Z,11.30
2019-03-08T16:09:59.664Z,1.60
2019-03-08T16:12:39.686Z,1.87
2019-03-08T16:15:18.944Z,1.92
2019-03-08T16:17:58.875Z,1.67
2019-03-08T16:20:38.960Z,1.70
2019-03-08T16:23:18.213Z,1.40
2019-03-08T16:25:57.680Z,1.62
2019-03-08T16:28:37.590Z,1.35
2019-03-08T16:34:05.280Z,1.80
2019-03-08T16:37:14.234Z,1.63
2019-03-08T16:40:20.485Z,1.50
2019-03-08T16:43:26.589Z,1.37
2019-03-08T16:46:32.789Z,1.50
2019-03-08T16:49:39.169Z,1.37
2019-03-08T16:52:45.587Z,1.70
2019-03-08T16:55:51.538Z,1.60
2019-03-08T16:58:46.466Z,2.37
2019-03-08T17:01:52.528Z,1.90
2019-03-08T17:04:58.674Z,2.30
2019-03-08T17:08:04.730Z,1.83
2019-03-08T17:11:11.149Z,1.57
2019-03-08T17:14:17.292Z,1.83
2019-03-08T17:17:23.692Z,2.57
2019-03-08T17:20:29.940Z,2.93
2019-03-08T17:23:35.991Z,2.93
2019-03-08T17:26:22.681Z,1.90
2019-03-08T17:29:29.143Z,2.00
2019-03-08T17:32:35.859Z,2.30
2019-03-08T17:35:42.012Z,1.40
2019-03-08T17:38:48.121Z,1.30
2019-03-08T17:41:22.608Z,2.10
2019-03-08T17:44:28.821Z,3.10
2019-03-08T17:47:20.191Z,1.50
2019-03-08T17:50:26.867Z,1.47
2019-03-08T17:53:32.961Z,2.07
2019-03-08T17:56:39.352Z,1.50
2019-03-08T17:59:38.367Z,2.80
2019-03-08T18:02:15.277Z,3.97
2019-03-08T18:05:21.359Z,4.50
2019-03-08T18:08:28.229Z,3.47
2019-03-08T18:11:34.719Z,2.50
2019-03-08T18:14:40.806Z,2.60
2019-03-08T18:17:35.150Z,2.00
2019-03-08T18:20:41.990Z,1.80
2019-03-08T18:23:48.070Z,1.97
2019-03-08T18:26:54.388Z,3.00
2019-03-08T18:30:00.491Z,2.20
2019-03-08T18:33:06.641Z,2.70
2019-03-08T18:36:12.822Z,2.80
2019-03-08T18:39:00.067Z,3.00
2019-03-08T18:42:06.364Z,2.23
2019-03-08T18:45:12.624Z,2.00
2019-03-08T18:48:18.799Z,1.70
2019-03-08T18:51:25.032Z,2.27
2019-03-08T18:54:31.118Z,2.40
2019-03-08T18:57:26.472Z,6.00
2019-03-08T19:00:26.139Z,2.77
2019-03-08T19:03:25.499Z,1.90
2019-03-08T19:06:26.780Z,2.00
2019-03-08T19:09:12.595Z,1.77
2019-03-08T19:12:07.244Z,1.90
2019-03-08T19:15:07.110Z,1.80
2019-03-08T19:18:12.343Z,1.60
2019-03-08T19:21:13.582Z,1.60
2019-03-08T19:24:12.939Z,3.60
2019-03-08T19:26:47.071Z,2.63
2019-03-08T19:29:53.248Z,5.07
2019-03-08T19:32:59.302Z,3.30
2019-03-08T19:36:05.386Z,2.90
2019-03-08T19:39:11.432Z,3.17
2019-03-08T19:42:17.629Z,10.80
2019-03-08T19:45:24.248Z,3.80
2019-03-08T19:48:30.427Z,3.60
2019-03-08T19:51:36.669Z,3.63
2019-03-08T19:54:23.640Z,3.90
2019-03-08T19:57:10.661Z,3.57
2019-03-08T20:00:16.154Z,3.83
2019-03-08T20:03:07.141Z,3.60
2019-03-08T20:06:12.269Z,4.13
2019-03-08T20:09:11.662Z,4.03
2019-03-08T20:12:16.616Z,4.33
2019-03-08T20:15:15.958Z,3.90
2019-03-08T20:18:03.513Z,4.40
2019-03-08T20:20:39.997Z,4.57
2019-03-08T20:23:26.423Z,4.77
2019-03-08T20:26:32.623Z,4.63
2019-03-08T20:29:38.736Z,4.73
2019-03-08T20:32:45.182Z,4.53
2019-03-08T20:35:38.509Z,5.07
2019-03-08T20:38:44.568Z,12.83
2019-03-08T20:41:50.705Z,7.47
2019-03-08T20:44:56.762Z,4.97
2019-03-08T20:47:43.154Z,5.20
2019-03-08T20:50:29.567Z,4.67
2019-03-08T20:52:56.815Z,5.33
2019-03-08T20:55:43.324Z,4.87
2019-03-08T20:58:29.997Z,6.73
2019-03-08T21:01:09.648Z,4.73
2019-03-08T21:03:50.173Z,11.50
2019-03-08T21:06:30.050Z,4.90
2019-03-08T21:09:10.438Z,5.57
2019-03-08T21:11:50.114Z,5.73
2019-03-08T21:14:30.376Z,4.60
2019-03-08T21:17:10.297Z,9.10
2019-03-08T21:19:50.367Z,5.73
2019-03-08T21:22:30.523Z,5.40
2019-03-08T21:25:10.695Z,14.63
2019-03-08T21:27:50.665Z,5.60
2019-03-08T21:30:30.974Z,7.97
2019-03-08T21:32:58.119Z,5.57
2019-03-08T21:35:46.663Z,5.10
2019-03-08T21:38:33.453Z,8.33
2019-03-08T21:41:00.443Z,5.20
2019-03-08T21:43:46.851Z,4.90
2019-03-08T21:46:33.399Z,7.40
2019-03-08T21:49:20.162Z,7.40
2019-03-08T21:52:06.785Z,5.00
2019-03-08T21:54:53.282Z,5.40
2019-03-08T21:57:39.684Z,7.70
2019-03-08T22:00:20.178Z,14.77
2019-03-08T22:03:00.054Z,4.90
2019-03-08T22:05:30.240Z,4.70
2019-03-08T22:08:18.029Z,5.23
2019-03-08T22:11:25.246Z,9.00
2019-03-08T22:14:11.882Z,16.00
2019-03-08T22:16:58.720Z,3.97
2019-03-08T22:19:25.464Z,4.50
2019-03-08T22:22:11.887Z,6.10
2019-03-08T22:24:58.273Z,5.43
2019-03-08T22:27:45.029Z,3.67
2019-03-08T22:30:32.089Z,3.60
2019-03-08T22:33:18.706Z,3.83
2019-03-08T22:36:05.555Z,3.70
2019-03-08T22:38:52.062Z,3.63
2019-03-08T22:41:38.698Z,3.50
2019-03-08T22:44:25.351Z,3.73
2019-03-08T22:47:11.861Z,3.67
2019-03-08T22:49:58.818Z,3.50
2019-03-08T22:52:45.313Z,3.77
2019-03-08T22:55:12.279Z,4.10
2019-03-08T22:57:59.055Z,3.60
2019-03-08T23:00:58.143Z,3.70
2019-03-08T23:03:37.735Z,3.23
2019-03-08T23:06:17.827Z,3.70
2019-03-08T23:08:57.995Z,4.10
2019-03-08T23:11:38.204Z,3.90
2019-03-08T23:14:18.545Z,5.13
2019-03-08T23:16:58.559Z,4.63
2019-03-08T23:19:38.575Z,4.03
2019-03-08T23:22:18.548Z,3.77
2019-03-08T23:24:58.773Z,3.20
2019-03-08T23:27:43.306Z,3.73
2019-03-08T23:30:25.779Z,4.07
2019-03-08T23:33:05.915Z,4.40
2019-03-08T23:35:46.052Z,3.40
2019-03-08T23:38:25.706Z,3.17
2019-03-08T23:41:05.087Z,3.00
2019-03-08T23:43:45.139Z,3.23
2019-03-08T23:46:25.425Z,3.00
2019-03-08T23:49:05.603Z,2.70
2019-03-08T23:51:45.622Z,3.07
2019-03-08T23:54:24.948Z,3.10
2019-03-08T23:57:04.919Z,2.87
2019-03-08T23:59:45.213Z,2.70
